createdAt,value
2017-10-15T00:01:11.076Z,7.10
2017-10-15T00:03:43.844Z,5.23
2017-10-15T00:06:16.478Z,6.73
2017-10-15T00:08:49.806Z,6.30
2017-10-15T00:11:23.355Z,6.37
2017-10-15T00:13:56.041Z,5.00
2017-10-15T00:16:28.607Z,6.20
2017-10-15T00:19:01.103Z,6.70
2017-10-15T00:21:33.429Z,5.40
2017-10-15T00:24:06.651Z,6.20
2017-10-15T00:26:40.249Z,6.60
2017-10-15T00:29:12.936Z,6.53
2017-10-15T00:31:45.352Z,6.07
2017-10-15T00:34:17.861Z,6.37
2017-10-15T00:36:50.389Z,5.73
2017-10-15T00:39:22.786Z,5.00
2017-10-15T00:41:55.193Z,5.70
2017-10-15T00:44:27.790Z,6.30
2017-10-15T00:47:00.258Z,6.40
2017-10-15T00:49:33.391Z,5.20
2017-10-15T00:52:06.175Z,6.50
2017-10-15T00:54:39.330Z,5.90
2017-10-15T00:57:12.283Z,8.37
2017-10-15T00:59:45.222Z,7.17
2017-10-15T01:02:18.892Z,5.53
2017-10-15T01:04:51.845Z,5.97
2017-10-15T01:07:24.597Z,5.80
2017-10-15T01:09:57.602Z,4.77
2017-10-15T01:12:30.594Z,6.60
2017-10-15T01:15:03.418Z,6.67
2017-10-15T01:17:36.694Z,7.20
2017-10-15T01:20:09.732Z,5.80
2017-10-15T01:22:42.269Z,5.77
2017-10-15T01:25:15.100Z,4.83
2017-10-15T01:27:47.462Z,5.40
2017-10-15T01:30:19.862Z,5.23
2017-10-15T01:32:53.207Z,5.37
2017-10-15T01:35:26.577Z,5.30
2017-10-15T01:37:59.447Z,6.00
2017-10-15T01:40:31.956Z,5.13
2017-10-15T01:43:04.909Z,5.17
2017-10-15T01:45:37.305Z,4.50
2017-10-15T01:48:11.192Z,4.27
2017-10-15T01:50:43.577Z,5.10
2017-10-15T01:53:16.255Z,4.23
2017-10-15T01:55:49.601Z,4.30
2017-10-15T01:58:22.873Z,4.47
2017-10-15T02:00:55.354Z,5.03
2017-10-15T02:03:27.977Z,3.90
2017-10-15T02:06:00.566Z,4.30
2017-10-15T02:08:33.873Z,5.83
2017-10-15T02:11:06.513Z,4.90
2017-10-15T02:13:39.225Z,5.57
2017-10-15T02:16:11.944Z,4.57
2017-10-15T02:18:44.688Z,3.77
2017-10-15T02:21:18.393Z,3.70
2017-10-15T02:23:51.459Z,4.77
2017-10-15T02:26:25.025Z,3.87
2017-10-15T02:28:58.614Z,4.00
2017-10-15T02:31:31.132Z,4.70
2017-10-15T02:34:03.519Z,3.40
2017-10-15T02:36:36.871Z,3.70
2017-10-15T02:39:10.475Z,4.23
2017-10-15T02:41:43.451Z,3.50
2017-10-15T02:44:16.102Z,3.53
2017-10-15T02:46:49.338Z,4.00
2017-10-15T02:49:22.179Z,4.83
2017-10-15T02:51:54.535Z,3.90
2017-10-15T02:54:27.113Z,3.37
2017-10-15T02:56:59.484Z,3.80
2017-10-15T02:59:32.063Z,4.00
2017-10-15T03:02:04.686Z,4.60
2017-10-15T03:04:37.160Z,3.70
2017-10-15T03:07:09.761Z,4.33
2017-10-15T03:09:42.184Z,4.63
2017-10-15T03:12:15.561Z,4.17
2017-10-15T03:14:48.693Z,3.60
2017-10-15T03:17:21.893Z,3.43
2017-10-15T03:19:54.495Z,4.17
2017-10-15T03:22:27.142Z,3.67
2017-10-15T03:24:59.913Z,3.73
2017-10-15T03:27:32.604Z,3.97
2017-10-15T03:30:05.346Z,3.33
2017-10-15T03:32:38.249Z,3.63
2017-10-15T03:35:11.233Z,3.70
2017-10-15T03:37:43.885Z,3.37
2017-10-15T03:40:16.582Z,3.93
2017-10-15T03:42:49.882Z,2.70
2017-10-15T03:45:22.619Z,3.70
2017-10-15T03:47:55.083Z,3.47
2017-10-15T03:50:27.505Z,2.97
2017-10-15T03:53:00.043Z,2.80
2017-10-15T03:55:32.340Z,2.87
2017-10-15T03:58:04.776Z,3.13
2017-10-15T04:00:37.313Z,3.53
2017-10-15T04:03:10.676Z,3.60
2017-10-15T04:05:43.285Z,3.37
2017-10-15T04:08:15.822Z,4.20
2017-10-15T04:10:49.001Z,3.60
2017-10-15T04:13:22.568Z,3.63
2017-10-15T04:15:55.270Z,3.03
2017-10-15T04:18:27.928Z,3.03
2017-10-15T04:21:01.196Z,3.10
2017-10-15T04:23:33.743Z,3.20
2017-10-15T04:26:07.715Z,2.80
2017-10-15T04:28:40.281Z,3.50
2017-10-15T04:31:12.659Z,3.17
2017-10-15T04:33:45.331Z,3.70
2017-10-15T04:36:18.957Z,3.40
2017-10-15T04:38:52.677Z,4.83
2017-10-15T04:41:25.898Z,3.10
2017-10-15T04:43:58.644Z,3.37
2017-10-15T04:46:31.505Z,3.10
2017-10-15T04:49:05.145Z,3.40
2017-10-15T04:51:38.168Z,3.20
2017-10-15T04:54:10.629Z,2.83
2017-10-15T04:56:43.109Z,2.83
2017-10-15T04:59:15.657Z,2.50
2017-10-15T05:01:48.142Z,2.37
2017-10-15T05:04:20.708Z,2.63
2017-10-15T05:06:53.297Z,2.50
2017-10-15T05:09:25.831Z,3.43
2017-10-15T05:11:58.226Z,3.10
2017-10-15T05:14:30.655Z,2.80
2017-10-15T05:17:03.076Z,2.73
2017-10-15T05:19:35.584Z,2.70
2017-10-15T05:22:08.022Z,4.70
2017-10-15T05:24:41.266Z,2.87
2017-10-15T05:27:14.743Z,2.70
2017-10-15T05:29:47.508Z,2.00
2017-10-15T05:32:19.888Z,3.20
2017-10-15T05:34:52.443Z,3.10
2017-10-15T05:37:25.061Z,2.80
2017-10-15T05:39:57.710Z,2.50
2017-10-15T05:42:30.878Z,3.90
2017-10-15T05:45:03.686Z,2.83
2017-10-15T05:47:36.404Z,2.80
2017-10-15T05:50:09.261Z,2.57
2017-10-15T05:52:48.749Z,2.50
2017-10-15T05:55:21.715Z,2.30
2017-10-15T05:57:54.402Z,3.37
2017-10-15T06:00:27.036Z,2.80
2017-10-15T06:02:59.746Z,2.67
2017-10-15T06:05:32.454Z,2.93
2017-10-15T06:08:04.858Z,3.20
2017-10-15T06:10:37.418Z,3.43
2017-10-15T06:13:09.875Z,3.10
2017-10-15T06:15:43.134Z,3.10
2017-10-15T06:18:15.696Z,2.70
2017-10-15T06:20:48.335Z,2.50
2017-10-15T06:23:20.635Z,2.50
2017-10-15T06:25:53.935Z,2.47
2017-10-15T06:28:26.719Z,3.60
2017-10-15T06:30:59.370Z,2.40
2017-10-15T06:33:31.974Z,2.70
2017-10-15T06:36:04.560Z,2.90
2017-10-15T06:38:37.140Z,2.43
2017-10-15T06:41:09.769Z,2.80
2017-10-15T06:43:42.373Z,2.70
2017-10-15T06:46:14.765Z,3.03
2017-10-15T06:48:47.739Z,2.47
2017-10-15T06:51:20.441Z,3.20
2017-10-15T06:53:53.192Z,2.83
2017-10-15T06:56:25.767Z,3.07
2017-10-15T06:58:58.579Z,3.63
2017-10-15T07:01:31.634Z,3.33
2017-10-15T07:04:04.724Z,2.47
2017-10-15T07:06:37.392Z,2.50
2017-10-15T07:09:10.307Z,3.60
2017-10-15T07:11:43.062Z,2.60
2017-10-15T07:14:15.734Z,2.70
2017-10-15T07:16:48.803Z,2.97
2017-10-15T07:19:21.504Z,3.10
2017-10-15T07:21:53.997Z,3.40
2017-10-15T07:24:26.499Z,2.70
2017-10-15T07:26:59.135Z,2.27
2017-10-15T07:29:32.276Z,2.40
2017-10-15T07:32:04.943Z,2.73
2017-10-15T07:34:37.321Z,2.90
2017-10-15T07:37:09.753Z,3.17
2017-10-15T07:39:42.237Z,2.90
2017-10-15T07:42:15.040Z,3.10
2017-10-15T07:44:48.050Z,2.27
2017-10-15T07:47:20.611Z,3.83
2017-10-15T07:49:53.086Z,3.27
2017-10-15T07:52:25.615Z,3.10
2017-10-15T07:54:58.101Z,2.60
2017-10-15T07:57:30.552Z,2.50
2017-10-15T08:00:03.081Z,3.13
2017-10-15T08:02:35.546Z,1.80
2017-10-15T08:05:08.127Z,2.80
2017-10-15T08:07:48.459Z,2.20
2017-10-15T08:10:21.696Z,2.60
2017-10-15T08:12:54.515Z,2.87
2017-10-15T08:15:28.089Z,3.13
2017-10-15T08:18:01.094Z,2.30
2017-10-15T08:20:34.757Z,2.30
2017-10-15T08:23:08.682Z,2.33
2017-10-15T08:25:41.779Z,1.80
2017-10-15T08:28:14.385Z,2.60
2017-10-15T08:30:46.802Z,2.90
2017-10-15T08:33:19.137Z,2.50
2017-10-15T08:35:52.289Z,3.13
2017-10-15T08:38:25.669Z,2.90
2017-10-15T08:40:59.034Z,3.27
2017-10-15T08:43:31.853Z,2.40
2017-10-15T08:46:05.058Z,2.40
2017-10-15T08:48:37.765Z,3.70
2017-10-15T08:51:11.832Z,3.60
2017-10-15T08:53:44.664Z,3.10
2017-10-15T08:56:17.198Z,2.43
2017-10-15T08:58:50.523Z,3.60
2017-10-15T09:01:23.181Z,2.33
2017-10-15T09:03:55.894Z,2.80
2017-10-15T09:06:28.527Z,2.30
2017-10-15T09:09:01.751Z,2.90
2017-10-15T09:11:34.649Z,2.87
2017-10-15T09:14:07.489Z,3.20
2017-10-15T09:16:40.072Z,3.00
2017-10-15T09:19:12.604Z,2.53
2017-10-15T09:21:45.113Z,3.17
2017-10-15T09:24:17.673Z,2.53
2017-10-15T09:26:50.181Z,2.80
2017-10-15T09:29:22.929Z,3.83
2017-10-15T09:31:55.452Z,3.73
2017-10-15T09:34:28.038Z,3.10
2017-10-15T09:37:01.079Z,2.80
2017-10-15T09:39:34.392Z,2.80
2017-10-15T09:42:07.789Z,3.70
2017-10-15T09:44:40.864Z,2.30
2017-10-15T09:47:13.604Z,2.33
2017-10-15T09:49:46.440Z,3.00
2017-10-15T09:52:19.759Z,3.30
2017-10-15T09:54:52.777Z,4.13
2017-10-15T09:57:25.385Z,4.37
2017-10-15T09:59:58.717Z,3.90
2017-10-15T10:02:31.713Z,3.50
2017-10-15T10:05:04.402Z,2.70
2017-10-15T10:07:37.876Z,2.40
2017-10-15T10:10:11.185Z,2.60
2017-10-15T10:12:43.855Z,2.40
2017-10-15T10:15:16.621Z,2.30
2017-10-15T10:17:49.811Z,2.53
2017-10-15T10:20:22.501Z,2.50
2017-10-15T10:22:55.909Z,2.80
2017-10-15T10:25:29.255Z,2.20
2017-10-15T10:28:02.085Z,2.00
2017-10-15T10:30:34.703Z,1.77
2017-10-15T10:33:07.997Z,2.10
2017-10-15T10:35:41.138Z,2.80
2017-10-15T10:38:14.824Z,2.27
2017-10-15T10:40:47.505Z,2.10
2017-10-15T10:43:20.737Z,2.37
2017-10-15T10:45:53.524Z,2.07
2017-10-15T10:48:26.136Z,2.13
2017-10-15T10:50:58.985Z,2.33
2017-10-15T10:53:31.690Z,3.03
2017-10-15T10:56:04.474Z,2.90
2017-10-15T10:58:37.077Z,2.50
2017-10-15T11:01:12.122Z,2.53
2017-10-15T11:03:44.434Z,2.30
2017-10-15T11:06:17.222Z,2.13
2017-10-15T11:08:49.748Z,2.43
2017-10-15T11:11:22.681Z,3.00
2017-10-15T11:13:55.237Z,2.30
2017-10-15T11:16:28.100Z,2.67
2017-10-15T11:19:00.957Z,2.80
2017-10-15T11:21:33.759Z,2.03
2017-10-15T11:24:07.144Z,2.37
2017-10-15T11:26:39.981Z,2.60
2017-10-15T11:29:12.401Z,2.10
2017-10-15T11:31:46.179Z,2.30
2017-10-15T11:34:18.769Z,2.53
2017-10-15T11:36:51.281Z,2.70
2017-10-15T11:39:23.756Z,2.60
2017-10-15T11:41:56.125Z,2.67
2017-10-15T11:44:29.577Z,2.40
2017-10-15T11:47:03.258Z,1.70
2017-10-15T11:49:36.222Z,3.27
2017-10-15T11:52:08.616Z,2.33
2017-10-15T11:54:41.261Z,2.33
2017-10-15T11:57:14.611Z,3.23
2017-10-15T11:59:47.601Z,2.13
2017-10-15T12:02:20.491Z,2.67
2017-10-15T12:07:32.823Z,2.50
2017-10-15T12:10:06.190Z,3.93
2017-10-15T12:12:39.340Z,2.00
2017-10-15T12:15:11.951Z,2.27
2017-10-15T12:17:44.659Z,1.90
2017-10-15T12:20:17.427Z,3.43
2017-10-15T12:22:50.390Z,3.30
2017-10-15T12:25:22.981Z,3.07
2017-10-15T12:27:55.744Z,2.40
2017-10-15T12:30:28.372Z,2.10
2017-10-15T12:33:01.211Z,2.43
2017-10-15T12:35:34.394Z,3.00
2017-10-15T12:38:07.384Z,2.13
2017-10-15T12:40:39.827Z,3.57
2017-10-15T12:43:12.476Z,4.17
2017-10-15T12:45:45.869Z,3.07
2017-10-15T12:48:18.838Z,3.70
2017-10-15T12:50:52.066Z,2.50
2017-10-15T12:53:25.377Z,2.67
2017-10-15T12:55:58.126Z,2.30
2017-10-15T12:58:30.536Z,2.20
2017-10-15T13:01:03.169Z,2.30
2017-10-15T13:03:35.734Z,3.13
2017-10-15T13:06:08.289Z,3.10
2017-10-15T13:08:40.799Z,3.10
2017-10-15T13:11:13.090Z,2.03
2017-10-15T13:13:45.785Z,2.80
2017-10-15T13:16:18.639Z,3.07
2017-10-15T13:18:51.251Z,2.53
2017-10-15T13:21:23.732Z,3.10
2017-10-15T13:23:56.514Z,3.53
2017-10-15T13:26:29.925Z,4.30
2017-10-15T13:29:03.062Z,5.23
2017-10-15T13:31:35.662Z,3.97
2017-10-15T13:34:08.848Z,2.93
2017-10-15T13:36:41.844Z,2.97
2017-10-15T13:39:14.530Z,2.60
2017-10-15T13:41:48.014Z,2.40
2017-10-15T13:44:21.402Z,3.70
2017-10-15T13:46:55.060Z,3.50
2017-10-15T13:49:28.053Z,3.07
2017-10-15T13:52:01.125Z,2.40
2017-10-15T13:54:34.047Z,2.67
2017-10-15T13:57:06.651Z,3.17
2017-10-15T13:59:39.954Z,2.60
2017-10-15T14:02:12.640Z,2.80
2017-10-15T14:04:45.245Z,2.40
2017-10-15T14:07:18.520Z,2.50
2017-10-15T14:09:51.296Z,3.13
2017-10-15T14:12:24.011Z,2.20
2017-10-15T14:14:57.346Z,2.67
2017-10-15T14:17:30.089Z,1.90
2017-10-15T14:20:02.785Z,1.97
2017-10-15T14:22:35.254Z,2.80
2017-10-15T14:25:07.979Z,2.30
2017-10-15T14:27:40.734Z,1.90
2017-10-15T14:30:14.128Z,2.30
2017-10-15T14:32:47.881Z,2.17
2017-10-15T14:35:20.815Z,2.73
2017-10-15T14:37:53.714Z,2.00
2017-10-15T14:40:26.602Z,2.47
2017-10-15T14:42:59.485Z,2.60
2017-10-15T14:45:32.048Z,2.70
2017-10-15T14:48:04.461Z,2.43
2017-10-15T14:50:37.180Z,2.70
2017-10-15T14:53:09.789Z,2.67
2017-10-15T14:55:43.119Z,2.50
2017-10-15T14:58:16.139Z,2.17
2017-10-15T15:00:49.342Z,2.30
2017-10-15T15:03:22.127Z,2.57
2017-10-15T15:05:54.803Z,2.10
2017-10-15T15:08:27.421Z,2.60
2017-10-15T15:10:59.898Z,2.00
2017-10-15T15:13:32.349Z,2.27
2017-10-15T15:16:04.983Z,2.00
2017-10-15T15:18:37.442Z,2.07
2017-10-15T15:21:10.008Z,2.20
2017-10-15T15:23:42.672Z,2.40
2017-10-15T15:26:16.230Z,2.50
2017-10-15T15:28:49.767Z,2.50
2017-10-15T15:31:22.684Z,2.70
2017-10-15T15:33:55.423Z,1.87
2017-10-15T15:36:28.257Z,2.00
2017-10-15T15:39:00.911Z,2.63
2017-10-15T15:41:33.707Z,1.83
2017-10-15T15:44:06.310Z,2.37
2017-10-15T15:46:38.847Z,2.10
2017-10-15T15:49:11.856Z,2.37
2017-10-15T15:51:44.712Z,2.83
2017-10-15T15:54:17.266Z,3.13
2017-10-15T15:56:49.714Z,2.60
2017-10-15T15:59:22.232Z,3.10
2017-10-15T16:01:55.618Z,2.03
2017-10-15T16:04:28.685Z,2.67
2017-10-15T16:07:01.421Z,2.53
2017-10-15T16:09:34.165Z,2.27
2017-10-15T16:12:07.709Z,2.67
2017-10-15T16:14:40.680Z,2.73
2017-10-15T16:17:13.250Z,3.40
2017-10-15T16:19:45.920Z,2.63
2017-10-15T16:22:18.414Z,2.67
2017-10-15T16:24:50.850Z,2.90
2017-10-15T16:27:23.320Z,3.13
2017-10-15T16:30:02.868Z,2.70
2017-10-15T16:32:35.863Z,2.40
2017-10-15T16:35:08.466Z,2.63
2017-10-15T16:37:41.366Z,2.93
2017-10-15T16:40:14.796Z,2.60
2017-10-15T16:42:47.623Z,2.20
2017-10-15T16:45:20.845Z,2.40
2017-10-15T16:47:53.675Z,2.40
2017-10-15T16:50:26.225Z,2.90
2017-10-15T16:52:58.894Z,2.20
2017-10-15T16:55:37.333Z,2.90
2017-10-15T16:58:09.779Z,2.70
2017-10-15T17:00:42.471Z,2.57
2017-10-15T17:03:15.066Z,2.80
2017-10-15T17:05:49.203Z,2.60
2017-10-15T17:08:22.351Z,3.20
2017-10-15T17:10:55.946Z,2.50
2017-10-15T17:13:28.625Z,2.80
2017-10-15T17:16:01.397Z,2.60
2017-10-15T17:18:34.542Z,3.00
2017-10-15T17:21:07.721Z,3.10
2017-10-15T17:23:40.527Z,3.00
2017-10-15T17:26:14.411Z,2.90
2017-10-15T17:28:49.004Z,3.17
2017-10-15T17:31:21.896Z,3.90
2017-10-15T17:33:55.831Z,3.30
2017-10-15T17:36:30.613Z,4.13
2017-10-15T17:39:04.578Z,4.30
2017-10-15T17:41:37.919Z,4.30
2017-10-15T17:44:12.162Z,5.10
2017-10-15T17:46:46.391Z,4.87
2017-10-15T17:49:20.021Z,5.83
2017-10-15T17:51:54.036Z,5.70
2017-10-15T17:54:28.618Z,6.53
2017-10-15T17:57:02.657Z,6.20
2017-10-15T17:59:36.534Z,6.60
2017-10-15T18:02:30.164Z,7.30
2017-10-15T18:05:11.298Z,7.87
2017-10-15T18:07:46.086Z,8.50
2017-10-15T18:10:21.502Z,8.80
2017-10-15T18:12:55.599Z,8.20
2017-10-15T18:15:30.380Z,7.17
2017-10-15T18:18:04.730Z,7.60
2017-10-15T18:20:39.301Z,7.23
2017-10-15T18:23:13.960Z,6.70
2017-10-15T18:25:48.905Z,7.43
2017-10-15T18:28:24.306Z,7.73
2017-10-15T18:30:58.455Z,7.27
2017-10-15T18:33:32.731Z,6.40
2017-10-15T18:36:08.373Z,6.33
2017-10-15T18:38:44.657Z,6.43
2017-10-15T18:41:20.489Z,6.33
2017-10-15T18:43:55.422Z,6.13
2017-10-15T18:46:31.256Z,6.77
2017-10-15T18:49:06.022Z,5.70
2017-10-15T18:51:41.588Z,6.57
2017-10-15T18:54:17.194Z,6.20
2017-10-15T18:56:51.847Z,6.00
2017-10-15T18:59:26.193Z,5.67
2017-10-15T19:02:04.392Z,6.80
2017-10-15T19:04:40.334Z,7.53
2017-10-15T19:07:15.393Z,8.77
2017-10-15T19:09:49.899Z,8.30
2017-10-15T19:12:25.903Z,8.03
2017-10-15T19:15:01.606Z,7.50
2017-10-15T19:17:37.385Z,7.90
2017-10-15T19:20:12.739Z,6.70
2017-10-15T19:22:47.888Z,7.40
2017-10-15T19:25:23.136Z,5.30
2017-10-15T19:27:58.343Z,6.20
2017-10-15T19:30:33.824Z,5.77
2017-10-15T19:33:09.005Z,5.27
2017-10-15T19:35:45.036Z,4.83
2017-10-15T19:38:20.818Z,4.90
2017-10-15T19:40:56.274Z,5.43
2017-10-15T19:43:31.700Z,5.63
2017-10-15T19:46:07.178Z,4.33
2017-10-15T19:48:43.793Z,4.10
2017-10-15T19:51:19.254Z,4.43
2017-10-15T19:53:54.589Z,5.10
2017-10-15T19:56:30.439Z,5.40
2017-10-15T19:59:04.851Z,5.20
2017-10-15T20:01:39.325Z,5.03
2017-10-15T20:04:15.474Z,4.80
2017-10-15T20:06:49.804Z,5.57
2017-10-15T20:09:24.508Z,5.50
2017-10-15T20:12:00.056Z,5.40
2017-10-15T20:14:35.498Z,4.20
2017-10-15T20:17:10.114Z,4.67
2017-10-15T20:19:45.915Z,4.23
2017-10-15T20:22:21.531Z,4.00
2017-10-15T20:24:57.306Z,4.60
2017-10-15T20:27:31.809Z,4.90
2017-10-15T20:30:07.940Z,4.90
2017-10-15T20:32:42.338Z,6.17
2017-10-15T20:35:17.121Z,5.90
2017-10-15T20:37:51.623Z,6.00
2017-10-15T20:40:27.124Z,5.30
2017-10-15T20:43:01.922Z,4.50
2017-10-15T20:45:37.397Z,4.13
2017-10-15T20:48:12.129Z,4.77
2017-10-15T20:50:46.231Z,4.80
2017-10-15T20:53:21.633Z,4.40
2017-10-15T20:55:56.368Z,4.30
2017-10-15T20:58:31.165Z,5.37
2017-10-15T21:01:05.727Z,4.37
2017-10-15T21:03:40.215Z,4.60
2017-10-15T21:06:15.471Z,5.30
2017-10-15T21:08:55.082Z,4.77
2017-10-15T21:11:27.820Z,4.23
2017-10-15T21:14:00.164Z,5.03
2017-10-15T21:16:32.599Z,4.40
2017-10-15T21:19:05.993Z,5.07
2017-10-15T21:21:38.718Z,5.30
2017-10-15T21:24:11.324Z,4.43
2017-10-15T21:26:51.554Z,5.43
2017-10-15T21:29:25.329Z,6.27
2017-10-15T21:31:58.398Z,5.07
2017-10-15T21:34:32.853Z,5.90
2017-10-15T21:37:05.235Z,5.37
2017-10-15T21:39:38.047Z,6.20
2017-10-15T21:42:10.736Z,5.03
2017-10-15T21:44:43.242Z,4.97
2017-10-15T21:47:16.062Z,5.67
2017-10-15T21:49:49.640Z,7.10
2017-10-15T21:52:22.501Z,5.73
2017-10-15T21:54:55.222Z,6.17
2017-10-15T21:57:27.977Z,5.50
2017-10-15T22:00:00.782Z,5.23
2017-10-15T22:02:34.275Z,5.73
2017-10-15T22:05:07.361Z,5.50
2017-10-15T22:07:40.000Z,5.60
2017-10-15T22:10:12.653Z,4.80
2017-10-15T22:12:45.233Z,5.40
2017-10-15T22:15:18.592Z,5.50
2017-10-15T22:17:52.381Z,5.10
2017-10-15T22:20:31.468Z,4.87
2017-10-15T22:23:04.453Z,4.97
2017-10-15T22:25:38.438Z,5.47
2017-10-15T22:28:11.264Z,4.40
2017-10-15T22:30:43.753Z,5.00
2017-10-15T22:33:17.255Z,4.60
2017-10-15T22:35:50.121Z,4.77
2017-10-15T22:38:23.693Z,4.70
2017-10-15T22:40:56.587Z,5.80
2017-10-15T22:43:30.007Z,5.53
2017-10-15T22:46:02.861Z,5.33
2017-10-15T22:51:42.254Z,5.07
2017-10-15T22:54:15.845Z,4.77
2017-10-15T22:56:49.602Z,4.33
2017-10-15T22:59:22.572Z,3.93
2017-10-15T23:01:55.063Z,6.40
2017-10-15T23:04:27.792Z,5.27
2017-10-15T23:07:00.378Z,4.67
2017-10-15T23:09:33.774Z,4.27
2017-10-15T23:12:06.261Z,4.23
2017-10-15T23:14:39.167Z,5.67
2017-10-15T23:17:12.382Z,4.33
2017-10-15T23:19:45.590Z,4.33
2017-10-15T23:22:18.869Z,4.97
2017-10-15T23:24:51.424Z,4.00
2017-10-15T23:27:23.954Z,4.10
2017-10-15T23:29:56.430Z,4.80
2017-10-15T23:32:28.842Z,3.50
2017-10-15T23:35:01.532Z,4.40
2017-10-15T23:37:34.033Z,4.63
2017-10-15T23:40:06.532Z,3.80
2017-10-15T23:42:39.085Z,3.53
2017-10-15T23:45:11.795Z,4.40
2017-10-15T23:47:45.348Z,3.40
2017-10-15T23:50:17.991Z,4.40
2017-10-15T23:52:50.578Z,4.57
2017-10-15T23:55:23.370Z,3.57
2017-10-15T23:57:56.155Z,3.77
